createdAt,value
2022-07-31T00:00:27.643Z,6.00
2022-07-31T00:01:27.646Z,6.60
2022-07-31T00:02:27.607Z,6.30
2022-07-31T00:03:27.707Z,6.00
2022-07-31T00:04:27.594Z,5.80
2022-07-31T00:05:27.571Z,6.20
2022-07-31T00:06:27.585Z,6.10
2022-07-31T00:07:27.549Z,5.40
2022-07-31T00:08:27.530Z,5.20
2022-07-31T00:09:52.901Z,6.00
2022-07-31T00:10:27.508Z,5.80
2022-07-31T00:11:27.499Z,5.50
2022-07-31T00:12:27.496Z,4.60
2022-07-31T00:13:57.593Z,5.40
2022-07-31T00:14:27.464Z,5.30
2022-07-31T00:15:27.431Z,4.50
2022-07-31T00:16:27.429Z,4.30
2022-07-31T00:17:27.437Z,4.80
2022-07-31T00:18:27.390Z,4.90
2022-07-31T00:19:27.389Z,4.50
2022-07-31T00:20:27.393Z,4.50
2022-07-31T00:21:27.367Z,4.40
2022-07-31T00:22:27.366Z,4.10
2022-07-31T00:23:27.335Z,3.90
2022-07-31T00:24:27.312Z,4.20
2022-07-31T00:25:27.322Z,4.00
2022-07-31T00:26:27.300Z,4.40
2022-07-31T00:27:27.294Z,4.60
2022-07-31T00:28:27.292Z,4.80
2022-07-31T00:29:27.245Z,4.40
2022-07-31T00:30:27.233Z,4.30
2022-07-31T00:31:27.229Z,4.50
2022-07-31T00:32:27.226Z,3.80
2022-07-31T00:33:27.226Z,4.10
2022-07-31T00:34:27.187Z,4.40
2022-07-31T00:35:27.163Z,4.30
2022-07-31T00:36:30.052Z,4.00
2022-07-31T00:37:27.154Z,4.00
2022-07-31T00:38:27.750Z,4.30
2022-07-31T00:39:27.114Z,4.40
2022-07-31T00:40:27.106Z,4.50
2022-07-31T00:41:27.089Z,4.70
2022-07-31T00:42:27.079Z,4.80
2022-07-31T00:43:27.483Z,4.40
2022-07-31T00:44:27.071Z,4.90
2022-07-31T00:45:29.251Z,3.80
2022-07-31T00:46:27.016Z,4.30
2022-07-31T00:47:27.015Z,4.60
2022-07-31T00:48:27.502Z,4.40
2022-07-31T00:49:27.079Z,4.70
2022-07-31T00:50:26.986Z,5.20
2022-07-31T00:51:26.957Z,4.40
2022-07-31T00:52:26.963Z,4.60
2022-07-31T00:53:26.928Z,4.90
2022-07-31T00:54:26.909Z,4.90
2022-07-31T00:55:26.906Z,5.10
2022-07-31T00:56:26.893Z,5.10
2022-07-31T00:57:26.900Z,5.30
2022-07-31T00:58:26.869Z,5.10
2022-07-31T00:59:26.849Z,4.90
2022-07-31T01:00:26.830Z,4.70
2022-07-31T01:01:26.967Z,4.70
2022-07-31T01:02:26.806Z,4.80
2022-07-31T01:03:26.794Z,4.70
2022-07-31T01:04:26.780Z,3.90
2022-07-31T01:05:26.771Z,4.40
2022-07-31T01:06:26.758Z,4.40
2022-07-31T01:07:26.778Z,3.80
2022-07-31T01:08:26.722Z,4.50
2022-07-31T01:09:26.719Z,4.60
2022-07-31T01:10:26.697Z,5.00
2022-07-31T01:11:26.693Z,4.90
2022-07-31T01:12:26.700Z,5.20
2022-07-31T01:13:26.655Z,4.70
2022-07-31T01:14:26.651Z,4.30
2022-07-31T01:15:26.634Z,4.80
2022-07-31T01:16:26.668Z,5.30
2022-07-31T01:17:26.637Z,4.60
2022-07-31T01:18:26.607Z,4.50
2022-07-31T01:19:42.262Z,4.00
2022-07-31T01:20:26.581Z,4.50
2022-07-31T01:21:26.560Z,5.00
2022-07-31T01:22:33.139Z,5.10
2022-07-31T01:23:26.550Z,4.20
2022-07-31T01:24:26.556Z,3.90
2022-07-31T01:25:26.518Z,4.30
2022-07-31T01:26:26.498Z,3.80
2022-07-31T01:27:26.475Z,4.00
2022-07-31T01:28:26.488Z,4.40
2022-07-31T01:29:26.450Z,4.20
2022-07-31T01:30:30.316Z,4.00
2022-07-31T01:31:27.640Z,3.70
2022-07-31T01:32:27.542Z,3.70
2022-07-31T01:33:26.423Z,3.80
2022-07-31T01:34:26.393Z,3.60
2022-07-31T01:35:26.366Z,4.00
2022-07-31T01:36:26.353Z,4.00
2022-07-31T01:37:26.339Z,4.10
2022-07-31T01:38:26.363Z,4.10
2022-07-31T01:39:26.314Z,3.70
2022-07-31T01:40:26.307Z,4.40
2022-07-31T01:41:26.321Z,4.10
2022-07-31T01:42:26.272Z,4.70
2022-07-31T01:43:26.288Z,5.00
2022-07-31T01:44:26.257Z,4.70
2022-07-31T01:45:26.238Z,4.50
2022-07-31T01:46:26.254Z,4.60
2022-07-31T01:47:26.208Z,4.40
2022-07-31T01:48:26.226Z,4.50
2022-07-31T01:49:26.253Z,4.80
2022-07-31T01:50:43.949Z,4.60
2022-07-31T01:51:26.160Z,3.90
2022-07-31T01:52:26.152Z,4.10
2022-07-31T01:53:26.168Z,3.90
2022-07-31T01:54:26.118Z,3.70
2022-07-31T01:55:26.103Z,4.40
2022-07-31T01:56:26.128Z,4.00
2022-07-31T01:57:26.078Z,4.30
2022-07-31T01:58:26.065Z,4.00
2022-07-31T01:59:26.086Z,3.90
2022-07-31T02:00:34.138Z,3.90
2022-07-31T02:01:27.366Z,3.80
2022-07-31T02:02:26.013Z,3.80
2022-07-31T02:03:44.245Z,3.80
2022-07-31T02:04:25.987Z,3.40
2022-07-31T02:05:25.964Z,3.40
2022-07-31T02:06:25.988Z,3.50
2022-07-31T02:07:25.940Z,3.80
2022-07-31T02:08:25.927Z,3.80
2022-07-31T02:09:25.914Z,4.00
2022-07-31T02:10:25.896Z,3.50
2022-07-31T02:11:25.922Z,4.10
2022-07-31T02:12:33.831Z,3.80
2022-07-31T02:13:25.871Z,3.50
2022-07-31T02:14:25.875Z,4.00
2022-07-31T02:15:25.826Z,3.60
2022-07-31T02:16:25.855Z,3.70
2022-07-31T02:17:25.804Z,4.20
2022-07-31T02:18:25.794Z,4.40
2022-07-31T02:19:25.780Z,4.40
2022-07-31T02:20:25.795Z,3.80
2022-07-31T02:21:25.759Z,3.90
2022-07-31T02:22:25.743Z,4.00
2022-07-31T02:23:25.718Z,4.20
2022-07-31T02:24:25.716Z,4.70
2022-07-31T02:25:25.717Z,5.20
2022-07-31T02:26:25.690Z,5.20
2022-07-31T02:27:54.363Z,4.80
2022-07-31T02:28:25.675Z,4.90
2022-07-31T02:29:25.646Z,4.90
2022-07-31T02:30:25.631Z,5.10
2022-07-31T02:31:25.767Z,5.40
2022-07-31T02:32:25.603Z,5.40
2022-07-31T02:33:25.598Z,5.40
2022-07-31T02:34:29.234Z,4.40
2022-07-31T02:35:25.569Z,4.10
2022-07-31T02:36:25.634Z,4.40
2022-07-31T02:37:25.532Z,4.60
2022-07-31T02:38:25.559Z,4.80
2022-07-31T02:39:30.070Z,4.90
2022-07-31T02:40:25.528Z,5.00
2022-07-31T02:41:25.520Z,5.90
2022-07-31T02:42:25.475Z,5.60
2022-07-31T02:43:25.450Z,5.70
2022-07-31T02:44:27.188Z,5.70
2022-07-31T02:45:25.427Z,5.90
2022-07-31T02:46:25.461Z,5.80
2022-07-31T02:47:25.413Z,5.30
2022-07-31T02:48:25.434Z,5.00
2022-07-31T02:49:25.437Z,4.20
2022-07-31T02:50:25.377Z,4.40
2022-07-31T02:51:25.386Z,3.70
2022-07-31T02:52:25.356Z,3.60
2022-07-31T02:53:25.326Z,3.80
2022-07-31T02:54:25.309Z,4.50
2022-07-31T02:55:25.293Z,4.60
2022-07-31T02:56:25.470Z,5.10
2022-07-31T02:57:25.273Z,5.20
2022-07-31T02:58:25.256Z,4.00
2022-07-31T02:59:25.828Z,4.00
2022-07-31T03:00:25.290Z,4.00
2022-07-31T03:01:25.289Z,4.00
2022-07-31T03:02:36.813Z,4.20
2022-07-31T03:03:25.199Z,4.50
2022-07-31T03:04:25.179Z,5.30
2022-07-31T03:05:25.157Z,5.10
2022-07-31T03:06:25.225Z,6.10
2022-07-31T03:07:25.143Z,5.80
2022-07-31T03:08:25.121Z,5.80
2022-07-31T03:09:25.110Z,5.90
2022-07-31T03:10:25.101Z,5.60
2022-07-31T03:11:25.106Z,5.40
2022-07-31T03:12:25.076Z,5.20
2022-07-31T03:13:25.051Z,5.60
2022-07-31T03:14:25.043Z,5.60
2022-07-31T03:15:25.029Z,5.40
2022-07-31T03:16:25.055Z,6.10
2022-07-31T03:17:38.093Z,5.80
2022-07-31T03:18:25.007Z,5.90
2022-07-31T03:19:24.971Z,6.60
2022-07-31T03:20:24.986Z,6.60
2022-07-31T03:21:24.938Z,5.60
2022-07-31T03:22:24.937Z,5.70
2022-07-31T03:23:24.940Z,5.90
2022-07-31T03:24:24.903Z,5.40
2022-07-31T03:25:24.898Z,5.30
2022-07-31T03:26:24.877Z,5.40
2022-07-31T03:27:24.863Z,5.60
2022-07-31T03:28:24.884Z,5.60
2022-07-31T03:29:41.182Z,5.40
2022-07-31T03:30:24.829Z,5.50
2022-07-31T03:31:24.838Z,6.00
2022-07-31T03:32:24.808Z,5.90
2022-07-31T03:33:24.814Z,5.90
2022-07-31T03:34:25.180Z,5.70
2022-07-31T03:35:24.765Z,5.90
2022-07-31T03:36:24.772Z,5.70
2022-07-31T03:37:24.743Z,6.00
2022-07-31T03:38:38.890Z,6.20
2022-07-31T03:39:24.712Z,6.00
2022-07-31T03:40:24.698Z,6.90
2022-07-31T03:41:24.829Z,5.80
2022-07-31T03:42:24.673Z,6.20
2022-07-31T03:43:24.679Z,6.50
2022-07-31T03:44:24.663Z,6.30
2022-07-31T03:45:24.627Z,6.10
2022-07-31T03:46:24.629Z,6.30
2022-07-31T03:47:24.593Z,7.00
2022-07-31T03:48:25.344Z,6.80
2022-07-31T03:49:24.648Z,7.40
2022-07-31T03:50:24.568Z,7.50
2022-07-31T03:51:24.552Z,8.50
2022-07-31T03:52:24.541Z,7.80
2022-07-31T03:53:24.513Z,7.70
2022-07-31T03:54:24.528Z,7.00
2022-07-31T03:55:24.504Z,7.10
2022-07-31T03:56:24.480Z,7.30
2022-07-31T03:57:27.013Z,7.10
2022-07-31T03:58:24.466Z,7.10
2022-07-31T03:59:24.438Z,7.20
2022-07-31T04:00:24.435Z,8.20
2022-07-31T04:01:24.482Z,7.40
2022-07-31T04:02:24.449Z,4.60
2022-07-31T04:03:24.389Z,5.50
2022-07-31T04:04:24.376Z,6.10
2022-07-31T04:05:24.369Z,6.00
2022-07-31T04:06:24.347Z,5.50
2022-07-31T04:07:24.361Z,5.90
2022-07-31T04:08:24.324Z,5.80
2022-07-31T04:09:24.311Z,6.30
2022-07-31T04:10:24.338Z,7.80
2022-07-31T04:11:24.279Z,6.40
2022-07-31T04:12:24.299Z,7.40
2022-07-31T04:13:24.257Z,7.50
2022-07-31T04:14:24.248Z,8.00
2022-07-31T04:15:24.246Z,6.60
2022-07-31T04:16:24.221Z,6.30
2022-07-31T04:17:24.227Z,6.30
2022-07-31T04:18:24.191Z,6.50
2022-07-31T04:19:24.174Z,6.10
2022-07-31T04:20:24.165Z,6.40
2022-07-31T04:21:24.145Z,5.90
2022-07-31T04:22:24.150Z,5.90
2022-07-31T04:23:24.142Z,5.90
2022-07-31T04:24:24.127Z,6.40
2022-07-31T04:25:24.121Z,6.00
2022-07-31T04:26:26.144Z,5.80
2022-07-31T04:27:24.111Z,5.80
2022-07-31T04:28:24.055Z,7.00
2022-07-31T04:29:24.043Z,6.60
2022-07-31T04:30:24.058Z,5.80
2022-07-31T04:31:24.012Z,5.60
2022-07-31T04:32:24.003Z,5.50
2022-07-31T04:33:23.990Z,5.20
2022-07-31T04:34:24.002Z,5.90
2022-07-31T04:35:23.961Z,6.90
2022-07-31T04:36:30.315Z,7.00
2022-07-31T04:37:23.973Z,6.50
2022-07-31T04:38:23.947Z,5.30
2022-07-31T04:39:23.919Z,4.10
2022-07-31T04:40:23.894Z,4.60
2022-07-31T04:41:23.910Z,5.10
2022-07-31T04:42:23.924Z,5.90
2022-07-31T04:43:23.853Z,5.90
2022-07-31T04:44:23.849Z,5.80
2022-07-31T04:45:23.832Z,5.50
2022-07-31T04:46:23.857Z,5.30
2022-07-31T04:47:23.805Z,5.50
2022-07-31T04:48:23.814Z,5.50
2022-07-31T04:49:23.850Z,5.50
2022-07-31T04:50:23.765Z,5.30
2022-07-31T04:51:23.749Z,5.30
2022-07-31T04:52:23.764Z,5.30
2022-07-31T04:53:23.722Z,5.20
2022-07-31T04:54:23.714Z,5.60
2022-07-31T04:55:23.695Z,5.10
2022-07-31T04:56:23.684Z,5.40
2022-07-31T04:57:23.710Z,5.00
2022-07-31T04:58:23.681Z,5.20
2022-07-31T04:59:23.643Z,5.70
2022-07-31T05:00:23.632Z,5.00
2022-07-31T05:01:23.702Z,5.40
2022-07-31T05:02:23.640Z,4.10
2022-07-31T05:03:23.597Z,3.70
2022-07-31T05:04:23.583Z,3.50
2022-07-31T05:05:23.559Z,4.00
2022-07-31T05:06:23.558Z,4.00
2022-07-31T05:07:23.573Z,4.10
2022-07-31T05:08:23.530Z,3.90
2022-07-31T05:09:25.459Z,3.80
2022-07-31T05:10:23.494Z,4.20
2022-07-31T05:11:23.491Z,4.30
2022-07-31T05:12:23.504Z,3.70
2022-07-31T05:13:23.451Z,4.00
2022-07-31T05:14:23.444Z,3.90
2022-07-31T05:15:23.446Z,4.20
2022-07-31T05:16:23.420Z,4.30
2022-07-31T05:17:23.418Z,4.30
2022-07-31T05:18:23.398Z,4.40
2022-07-31T05:19:23.401Z,4.20
2022-07-31T05:20:23.361Z,4.40
2022-07-31T05:21:23.375Z,4.70
2022-07-31T05:22:23.365Z,3.70
2022-07-31T05:23:23.327Z,3.90
2022-07-31T05:24:33.597Z,3.70
2022-07-31T05:25:23.301Z,4.10
2022-07-31T05:26:23.284Z,4.20
2022-07-31T05:27:23.581Z,4.20
2022-07-31T05:28:29.561Z,3.90
2022-07-31T05:29:23.250Z,4.10
2022-07-31T05:30:30.425Z,4.00
2022-07-31T05:31:23.237Z,3.90
2022-07-31T05:32:23.534Z,4.40
2022-07-31T05:33:23.223Z,3.60
2022-07-31T05:34:23.182Z,4.20
2022-07-31T05:35:23.167Z,3.70
2022-07-31T05:36:23.164Z,3.00
2022-07-31T05:37:23.130Z,3.20
2022-07-31T05:38:23.149Z,3.20
2022-07-31T05:39:23.139Z,3.20
2022-07-31T05:40:23.100Z,3.50
2022-07-31T05:41:23.078Z,3.00
2022-07-31T05:42:23.098Z,4.80
2022-07-31T05:43:23.057Z,3.70
2022-07-31T05:44:23.055Z,3.70
2022-07-31T05:45:23.056Z,3.70
2022-07-31T05:46:23.871Z,3.60
2022-07-31T05:47:22.996Z,3.00
2022-07-31T05:48:23.004Z,3.80
2022-07-31T05:49:24.393Z,4.00
2022-07-31T05:50:23.029Z,3.20
2022-07-31T05:51:22.977Z,3.80
2022-07-31T05:52:22.936Z,3.40
2022-07-31T05:53:22.945Z,3.40
2022-07-31T05:54:22.920Z,3.50
2022-07-31T05:55:22.898Z,3.40
2022-07-31T05:56:22.879Z,3.90
2022-07-31T05:57:33.229Z,3.60
2022-07-31T05:58:22.919Z,3.20
2022-07-31T05:59:22.888Z,3.20
2022-07-31T06:00:22.901Z,3.40
2022-07-31T06:01:22.932Z,3.50
2022-07-31T06:02:22.833Z,3.50
2022-07-31T06:03:22.803Z,3.40
2022-07-31T06:04:22.780Z,3.20
2022-07-31T06:05:22.791Z,3.50
2022-07-31T06:06:22.761Z,4.00
2022-07-31T06:07:22.851Z,3.70
2022-07-31T06:08:22.751Z,3.70
2022-07-31T06:09:22.741Z,3.40
2022-07-31T06:10:22.697Z,3.30
2022-07-31T06:11:22.688Z,3.20
2022-07-31T06:12:22.658Z,3.50
2022-07-31T06:13:22.845Z,3.30
2022-07-31T06:14:22.651Z,3.30
2022-07-31T06:15:22.630Z,3.40
2022-07-31T06:16:22.645Z,3.00
2022-07-31T06:17:22.611Z,3.00
2022-07-31T06:18:22.635Z,2.80
2022-07-31T06:19:24.501Z,3.00
2022-07-31T06:20:22.557Z,2.80
2022-07-31T06:21:51.557Z,3.10
2022-07-31T06:22:52.502Z,3.30
2022-07-31T06:23:52.510Z,3.50
2022-07-31T06:24:52.505Z,3.50
2022-07-31T06:25:52.464Z,3.50
2022-07-31T06:26:52.453Z,3.80
2022-07-31T06:27:56.563Z,3.40
2022-07-31T06:28:52.453Z,2.90
2022-07-31T06:29:52.435Z,3.10
2022-07-31T06:30:52.402Z,2.80
2022-07-31T06:31:52.383Z,2.90
2022-07-31T06:32:52.372Z,3.20
2022-07-31T06:33:52.812Z,3.00
2022-07-31T06:34:52.448Z,2.80
2022-07-31T06:35:52.354Z,2.90
2022-07-31T06:36:52.318Z,2.80
2022-07-31T06:37:52.317Z,3.00
2022-07-31T06:38:52.341Z,3.10
2022-07-31T06:39:54.670Z,3.60
2022-07-31T06:40:52.269Z,3.70
2022-07-31T06:41:52.250Z,3.80
2022-07-31T06:42:52.252Z,3.30
2022-07-31T06:43:52.224Z,3.70
2022-07-31T06:44:52.233Z,3.60
2022-07-31T06:45:52.709Z,3.30
2022-07-31T06:46:52.174Z,3.70
2022-07-31T06:47:52.218Z,3.40
2022-07-31T06:48:52.204Z,3.40
2022-07-31T06:49:52.154Z,3.40
2022-07-31T06:50:54.239Z,3.70
2022-07-31T06:51:52.121Z,3.50
2022-07-31T06:52:52.142Z,3.40
2022-07-31T06:53:52.415Z,3.60
2022-07-31T06:54:52.073Z,3.80
2022-07-31T06:55:52.081Z,3.50
2022-07-31T06:56:52.049Z,3.70
2022-07-31T06:57:52.032Z,3.30
2022-07-31T06:58:52.021Z,3.20
2022-07-31T06:59:51.993Z,3.50
2022-07-31T07:00:52.017Z,3.20
2022-07-31T07:01:52.023Z,3.40
2022-07-31T07:02:51.968Z,3.60
2022-07-31T07:03:51.952Z,3.80
2022-07-31T07:04:57.332Z,5.70
2022-07-31T07:05:51.989Z,12.60
2022-07-31T07:06:51.936Z,10.60
2022-07-31T07:07:52.014Z,5.60
2022-07-31T07:08:51.925Z,3.60
2022-07-31T07:09:51.879Z,3.80
2022-07-31T07:10:51.867Z,3.60
2022-07-31T07:11:54.913Z,3.60
2022-07-31T07:12:51.836Z,3.70
2022-07-31T07:13:51.809Z,4.30
2022-07-31T07:14:51.793Z,4.50
2022-07-31T07:15:51.802Z,4.10
2022-07-31T07:16:51.773Z,4.90
2022-07-31T07:17:51.782Z,4.40
2022-07-31T07:18:51.749Z,3.90
2022-07-31T07:19:55.012Z,3.30
2022-07-31T07:20:51.711Z,3.40
2022-07-31T07:21:51.723Z,3.30
2022-07-31T07:22:51.678Z,3.30
2022-07-31T07:23:51.669Z,3.30
2022-07-31T07:24:51.652Z,3.10
2022-07-31T07:25:51.672Z,3.10
2022-07-31T07:26:51.642Z,3.50
2022-07-31T07:27:51.624Z,3.40
2022-07-31T07:28:51.604Z,3.20
2022-07-31T07:29:51.581Z,3.20
2022-07-31T07:30:51.616Z,3.30
2022-07-31T07:31:51.570Z,3.30
2022-07-31T07:32:51.553Z,3.30
2022-07-31T07:33:51.569Z,3.10
2022-07-31T07:35:00.241Z,3.00
2022-07-31T07:35:51.546Z,5.50
2022-07-31T07:36:51.525Z,7.50
2022-07-31T07:37:51.488Z,4.00
2022-07-31T07:38:51.495Z,3.10
2022-07-31T07:39:51.457Z,3.10
2022-07-31T07:40:51.441Z,3.00
2022-07-31T07:41:51.444Z,2.80
2022-07-31T07:42:51.440Z,3.10
2022-07-31T07:43:52.454Z,3.10
2022-07-31T07:44:51.389Z,3.10
2022-07-31T07:45:51.397Z,2.90
2022-07-31T07:46:51.385Z,3.00
2022-07-31T07:47:54.008Z,3.20
2022-07-31T07:48:51.458Z,2.90
2022-07-31T07:49:51.319Z,3.00
2022-07-31T07:50:51.302Z,3.00
2022-07-31T07:51:59.633Z,3.10
2022-07-31T07:52:51.279Z,3.00
2022-07-31T07:53:51.259Z,2.90
2022-07-31T07:54:51.253Z,2.90
2022-07-31T07:55:51.234Z,2.80
2022-07-31T07:56:51.263Z,2.50
2022-07-31T07:57:51.216Z,2.60
2022-07-31T07:58:51.216Z,2.90
2022-07-31T07:59:51.203Z,3.10
2022-07-31T08:00:51.220Z,2.80
2022-07-31T08:01:51.149Z,2.80
2022-07-31T08:03:47.567Z,2.80
2022-07-31T08:03:55.123Z,3.00
2022-07-31T08:04:51.135Z,2.70
2022-07-31T08:05:51.119Z,3.00
2022-07-31T08:06:51.127Z,2.90
2022-07-31T08:07:51.072Z,2.70
2022-07-31T08:08:51.081Z,2.80
2022-07-31T08:09:51.056Z,2.70
2022-07-31T08:10:51.068Z,2.70
2022-07-31T08:11:51.016Z,2.80
2022-07-31T08:12:51.005Z,2.60
2022-07-31T08:13:51.407Z,2.70
2022-07-31T08:14:50.974Z,2.70
2022-07-31T08:15:50.955Z,2.50
2022-07-31T08:16:50.974Z,2.70
2022-07-31T08:17:50.958Z,2.50
2022-07-31T08:18:50.929Z,2.80
2022-07-31T08:19:51.386Z,2.70
2022-07-31T08:20:50.910Z,2.60
2022-07-31T08:21:50.878Z,2.70
2022-07-31T08:22:50.896Z,3.00
2022-07-31T08:23:50.853Z,3.00
2022-07-31T08:24:50.874Z,2.80
2022-07-31T08:25:51.432Z,2.70
2022-07-31T08:26:50.853Z,2.60
2022-07-31T08:27:50.813Z,2.60
2022-07-31T08:28:51.290Z,2.70
2022-07-31T08:29:50.781Z,2.70
2022-07-31T08:30:50.768Z,2.70
2022-07-31T08:31:50.751Z,2.70
2022-07-31T08:32:50.777Z,2.80
2022-07-31T08:33:50.723Z,2.50
2022-07-31T08:34:50.736Z,3.10
2022-07-31T08:35:50.916Z,2.80
2022-07-31T08:36:50.675Z,2.70
2022-07-31T08:38:02.422Z,2.80
2022-07-31T08:38:50.657Z,2.70
2022-07-31T08:39:50.634Z,2.90
2022-07-31T08:40:50.650Z,2.80
2022-07-31T08:41:50.635Z,2.80
2022-07-31T08:42:50.600Z,2.60
2022-07-31T08:44:01.537Z,2.90
2022-07-31T08:44:50.573Z,2.50
2022-07-31T08:45:50.574Z,2.60
2022-07-31T08:46:50.610Z,2.80
2022-07-31T08:47:50.548Z,2.90
2022-07-31T08:48:50.596Z,2.70
2022-07-31T08:49:50.511Z,2.80
2022-07-31T08:50:53.744Z,2.80
2022-07-31T08:51:51.377Z,2.70
2022-07-31T08:52:50.484Z,2.70
2022-07-31T08:53:50.447Z,2.60
2022-07-31T08:54:50.427Z,2.70
2022-07-31T08:55:56.814Z,2.60
2022-07-31T08:56:50.411Z,2.40
2022-07-31T08:57:50.398Z,2.50
2022-07-31T08:58:50.402Z,2.50
2022-07-31T08:59:50.404Z,2.40
2022-07-31T09:00:50.419Z,2.50
2022-07-31T09:01:50.354Z,2.50
2022-07-31T09:02:50.372Z,2.40
2022-07-31T09:03:50.315Z,2.50
2022-07-31T09:04:52.599Z,2.60
2022-07-31T09:05:50.288Z,2.70
2022-07-31T09:06:50.270Z,2.70
2022-07-31T09:07:50.297Z,2.50
2022-07-31T09:08:50.248Z,2.80
2022-07-31T09:09:52.218Z,2.70
2022-07-31T09:10:50.534Z,2.70
2022-07-31T09:11:50.260Z,2.50
2022-07-31T09:12:50.188Z,2.90
2022-07-31T09:14:02.686Z,2.60
2022-07-31T09:14:50.167Z,2.60
2022-07-31T09:15:50.151Z,2.50
2022-07-31T09:16:50.199Z,2.60
2022-07-31T09:17:54.018Z,7.80
2022-07-31T09:18:50.100Z,3.40
2022-07-31T09:19:52.619Z,2.60
2022-07-31T09:20:50.103Z,2.40
2022-07-31T09:21:50.069Z,2.40
2022-07-31T09:22:50.079Z,2.40
2022-07-31T09:23:50.043Z,2.50
2022-07-31T09:24:50.026Z,2.30
2022-07-31T09:25:50.017Z,2.40
2022-07-31T09:26:49.996Z,2.20
2022-07-31T09:27:49.992Z,2.50
2022-07-31T09:28:49.993Z,2.20
2022-07-31T09:29:49.961Z,2.30
2022-07-31T09:30:55.847Z,2.40
2022-07-31T09:31:49.938Z,2.40
2022-07-31T09:32:49.917Z,2.50
2022-07-31T09:33:49.930Z,2.60
2022-07-31T09:34:49.926Z,2.70
2022-07-31T09:35:49.881Z,2.20
2022-07-31T09:36:49.878Z,2.30
2022-07-31T09:37:49.855Z,2.20
2022-07-31T09:38:49.863Z,2.20
2022-07-31T09:39:52.191Z,2.40
2022-07-31T09:40:56.858Z,2.40
2022-07-31T09:41:58.256Z,2.20
2022-07-31T09:42:55.101Z,2.20
2022-07-31T09:43:51.902Z,2.10
2022-07-31T09:44:49.786Z,2.20
2022-07-31T09:45:49.774Z,2.50
2022-07-31T09:46:49.735Z,2.20
2022-07-31T09:47:49.717Z,2.40
2022-07-31T09:48:49.734Z,2.30
2022-07-31T09:49:49.698Z,2.20
2022-07-31T09:50:49.707Z,2.40
2022-07-31T09:51:49.665Z,2.40
2022-07-31T09:52:49.652Z,2.30
2022-07-31T09:53:49.641Z,2.10
2022-07-31T09:54:49.648Z,2.20
2022-07-31T09:55:49.615Z,2.20
2022-07-31T09:56:49.597Z,2.10
2022-07-31T09:57:50.285Z,2.20
2022-07-31T09:58:49.575Z,2.40
2022-07-31T09:59:49.590Z,2.40
2022-07-31T10:00:49.687Z,2.50
2022-07-31T10:01:49.540Z,2.30
2022-07-31T10:02:49.535Z,2.30
2022-07-31T10:03:49.517Z,2.60
2022-07-31T10:04:49.519Z,2.30
2022-07-31T10:05:49.479Z,2.50
2022-07-31T10:06:49.461Z,2.50
2022-07-31T10:07:49.454Z,2.30
2022-07-31T10:08:49.460Z,2.20
2022-07-31T10:09:49.427Z,2.30
2022-07-31T10:10:49.423Z,2.10
2022-07-31T10:11:49.404Z,2.20
2022-07-31T10:12:49.392Z,2.00
2022-07-31T10:13:49.366Z,2.20
2022-07-31T10:14:49.378Z,2.30
2022-07-31T10:15:49.346Z,2.00
2022-07-31T10:16:49.327Z,1.90
2022-07-31T10:17:49.326Z,1.90
2022-07-31T10:18:49.295Z,2.10
2022-07-31T10:19:49.308Z,2.00
2022-07-31T10:20:49.859Z,2.10
2022-07-31T10:21:49.260Z,2.10
2022-07-31T10:22:49.461Z,2.10
2022-07-31T10:23:49.232Z,2.00
2022-07-31T10:24:49.213Z,2.40
2022-07-31T10:25:53.754Z,2.10
2022-07-31T10:27:09.334Z,2.20
2022-07-31T10:27:49.210Z,2.00
2022-07-31T10:28:49.157Z,2.20
2022-07-31T10:29:49.154Z,2.40
2022-07-31T10:30:49.135Z,2.10
2022-07-31T10:31:49.151Z,2.20
2022-07-31T10:32:49.108Z,1.90
2022-07-31T10:33:49.090Z,2.00
2022-07-31T10:34:49.076Z,2.10
2022-07-31T10:35:55.466Z,1.90
2022-07-31T10:36:49.085Z,1.90
2022-07-31T10:37:49.071Z,2.10
2022-07-31T10:38:49.027Z,1.90
2022-07-31T10:39:49.010Z,2.10
2022-07-31T10:40:49.001Z,1.90
2022-07-31T10:41:48.977Z,2.10
2022-07-31T10:42:48.994Z,1.90
2022-07-31T10:43:48.957Z,2.00
2022-07-31T10:44:48.940Z,1.90
2022-07-31T10:45:48.932Z,1.80
2022-07-31T10:46:48.955Z,2.30
2022-07-31T10:47:48.973Z,2.00
2022-07-31T10:48:48.944Z,2.30
2022-07-31T10:49:48.884Z,2.20
2022-07-31T10:50:48.859Z,1.90
2022-07-31T10:51:48.884Z,2.10
2022-07-31T10:52:48.858Z,2.00
2022-07-31T10:53:50.833Z,2.10
2022-07-31T10:54:48.816Z,1.90
2022-07-31T10:55:48.829Z,1.90
2022-07-31T10:56:48.777Z,2.00
2022-07-31T10:57:55.358Z,2.00
2022-07-31T10:58:48.758Z,1.90
2022-07-31T10:59:48.738Z,1.90
2022-07-31T11:00:48.728Z,2.00
2022-07-31T11:01:52.981Z,2.00
2022-07-31T11:02:48.705Z,2.00
2022-07-31T11:03:48.682Z,1.70
2022-07-31T11:04:48.670Z,2.00
2022-07-31T11:06:02.086Z,1.80
2022-07-31T11:06:48.672Z,2.00
2022-07-31T11:07:48.670Z,2.00
2022-07-31T11:08:48.610Z,2.00
2022-07-31T11:09:51.147Z,2.00
2022-07-31T11:10:48.624Z,1.80
2022-07-31T11:11:48.578Z,1.90
2022-07-31T11:12:48.569Z,1.70
2022-07-31T11:13:48.554Z,2.00
2022-07-31T11:14:48.542Z,2.00
2022-07-31T11:15:48.574Z,1.90
2022-07-31T11:16:48.507Z,1.80
2022-07-31T11:18:25.331Z,2.10
2022-07-31T11:18:48.494Z,1.90
2022-07-31T11:19:48.506Z,1.80
2022-07-31T11:20:48.458Z,1.90
2022-07-31T11:21:48.455Z,1.80
2022-07-31T11:22:48.440Z,1.90
2022-07-31T11:24:02.401Z,2.10
2022-07-31T11:24:48.455Z,2.10
2022-07-31T11:25:48.398Z,1.90
2022-07-31T11:26:48.404Z,1.90
2022-07-31T11:27:48.370Z,1.80
2022-07-31T11:28:48.361Z,1.80
2022-07-31T11:29:58.627Z,1.70
2022-07-31T11:30:48.362Z,1.80
2022-07-31T11:31:48.328Z,1.90
2022-07-31T11:32:48.302Z,1.80
2022-07-31T11:33:48.339Z,1.70
2022-07-31T11:34:48.287Z,1.70
2022-07-31T11:35:48.262Z,2.00
2022-07-31T11:36:51.470Z,1.90
2022-07-31T11:37:57.796Z,1.90
2022-07-31T11:38:48.225Z,1.80
2022-07-31T11:39:52.582Z,1.60
2022-07-31T11:40:48.226Z,1.70
2022-07-31T11:41:48.216Z,1.90
2022-07-31T11:42:59.852Z,1.60
2022-07-31T11:43:48.195Z,1.90
2022-07-31T11:44:48.137Z,1.60
2022-07-31T11:45:48.301Z,1.80
2022-07-31T11:46:48.118Z,1.50
2022-07-31T11:48:11.734Z,1.80
2022-07-31T11:48:48.183Z,1.60
2022-07-31T11:49:48.923Z,1.70
2022-07-31T11:50:48.068Z,1.60
2022-07-31T11:51:48.055Z,1.90
2022-07-31T11:52:48.035Z,1.80
2022-07-31T11:53:56.701Z,1.50
2022-07-31T11:54:48.109Z,1.50
2022-07-31T11:55:47.999Z,1.50
2022-07-31T11:56:47.990Z,1.40
2022-07-31T11:57:51.730Z,1.40
2022-07-31T11:58:47.977Z,1.40
2022-07-31T11:59:49.714Z,1.50
2022-07-31T12:00:47.959Z,1.70
2022-07-31T12:01:47.917Z,1.80
2022-07-31T12:02:48.002Z,1.60
2022-07-31T12:03:47.891Z,1.60
2022-07-31T12:04:47.876Z,1.60
2022-07-31T12:05:47.899Z,1.60
2022-07-31T12:06:47.970Z,1.50
2022-07-31T12:07:47.833Z,1.50
2022-07-31T12:08:47.822Z,1.70
2022-07-31T12:10:01.849Z,1.90
2022-07-31T12:10:47.815Z,1.70
2022-07-31T12:11:47.787Z,1.60
2022-07-31T12:12:47.770Z,1.80
2022-07-31T12:13:47.788Z,1.70
2022-07-31T12:14:47.757Z,1.70
2022-07-31T12:15:47.727Z,1.80
2022-07-31T12:16:47.747Z,1.50
2022-07-31T12:17:47.707Z,1.60
2022-07-31T12:18:47.687Z,1.50
2022-07-31T12:19:47.771Z,1.60
2022-07-31T12:20:47.664Z,1.70
2022-07-31T12:21:47.652Z,1.90
2022-07-31T12:22:47.673Z,1.80
2022-07-31T12:23:47.626Z,2.00
2022-07-31T12:24:47.610Z,1.90
2022-07-31T12:25:47.595Z,2.00
2022-07-31T12:26:47.600Z,1.90
2022-07-31T12:27:47.573Z,4.00
2022-07-31T12:28:47.582Z,2.20
2022-07-31T12:29:47.556Z,1.80
2022-07-31T12:30:47.529Z,2.00
2022-07-31T12:31:47.546Z,1.80
2022-07-31T12:32:47.505Z,1.90
2022-07-31T12:33:47.525Z,1.80
2022-07-31T12:34:47.472Z,1.60
2022-07-31T12:35:55.899Z,1.50
2022-07-31T12:36:47.473Z,1.70
2022-07-31T12:37:47.535Z,1.60
2022-07-31T12:38:48.411Z,2.00
2022-07-31T12:39:54.221Z,1.70
2022-07-31T12:40:47.415Z,1.60
2022-07-31T12:41:47.385Z,2.00
2022-07-31T12:42:47.368Z,1.70
2022-07-31T12:43:51.298Z,1.60
2022-07-31T12:44:47.376Z,1.70
2022-07-31T12:45:47.331Z,1.80
2022-07-31T12:46:47.344Z,1.60
2022-07-31T12:47:52.123Z,1.90
2022-07-31T12:48:47.457Z,2.10
2022-07-31T12:49:47.276Z,1.90
2022-07-31T12:50:47.296Z,1.90
2022-07-31T12:51:47.384Z,1.90
2022-07-31T12:52:47.242Z,1.80
2022-07-31T12:53:47.271Z,1.80
2022-07-31T12:54:47.221Z,1.80
2022-07-31T12:55:47.217Z,1.80
2022-07-31T12:56:47.185Z,1.60
2022-07-31T12:57:50.522Z,1.70
2022-07-31T12:58:47.190Z,1.80
2022-07-31T12:59:47.145Z,2.00
2022-07-31T13:00:47.159Z,1.80
2022-07-31T13:01:47.291Z,1.60
2022-07-31T13:02:47.107Z,1.60
2022-07-31T13:03:47.122Z,1.70
2022-07-31T13:04:47.087Z,1.60
2022-07-31T13:05:51.694Z,1.70
2022-07-31T13:06:47.060Z,1.60
2022-07-31T13:07:47.054Z,1.80
2022-07-31T13:08:47.041Z,1.80
2022-07-31T13:10:21.181Z,1.60
2022-07-31T13:10:47.012Z,1.80
2022-07-31T13:11:48.708Z,1.70
2022-07-31T13:12:46.981Z,1.70
2022-07-31T13:13:46.966Z,3.00
2022-07-31T13:14:46.962Z,2.30
2022-07-31T13:15:46.957Z,2.10
2022-07-31T13:16:46.923Z,1.90
2022-07-31T13:17:50.186Z,1.90
2022-07-31T13:18:46.988Z,1.80